createdAt,value
2022-10-23T00:03:13.552Z,10.69
2022-10-23T00:08:15.442Z,10.79
2022-10-23T00:13:17.181Z,10.83
2022-10-23T00:18:18.981Z,10.80
2022-10-23T00:23:20.752Z,10.73
2022-10-23T00:28:22.721Z,10.84
2022-10-23T00:33:24.503Z,10.83
2022-10-23T00:38:26.413Z,10.75
2022-10-23T00:43:30.300Z,10.77
2022-10-23T00:48:32.243Z,10.79
2022-10-23T00:53:34.363Z,10.84
2022-10-23T00:58:36.266Z,10.90
2022-10-23T01:03:38.054Z,10.89
2022-10-23T01:08:50.673Z,10.95
2022-10-23T01:14:00.546Z,11.05
2022-10-23T01:19:16.813Z,10.96
2022-10-23T01:24:42.443Z,10.93
2022-10-23T01:29:51.654Z,10.97
2022-10-23T01:35:12.448Z,10.94
2022-10-23T01:40:25.630Z,10.84
2022-10-23T01:45:30.561Z,10.89
2022-10-23T01:50:34.202Z,10.91
2022-10-23T01:55:37.796Z,10.89
2022-10-23T02:00:41.578Z,10.80
2022-10-23T02:05:44.489Z,10.78
2022-10-23T02:10:55.832Z,10.73
2022-10-23T02:16:11.280Z,10.69
2022-10-23T02:21:17.748Z,10.81
2022-10-23T02:26:38.179Z,10.79
2022-10-23T02:31:40.069Z,10.68
2022-10-23T02:36:41.858Z,10.74
2022-10-23T02:41:43.649Z,10.93
2022-10-23T02:47:10.659Z,10.88
2022-10-23T02:52:20.206Z,10.87
2022-10-23T02:57:47.455Z,10.86
2022-10-23T03:02:49.135Z,10.97
2022-10-23T03:07:51.943Z,10.98
2022-10-23T03:12:53.853Z,11.01
2022-10-23T03:17:55.944Z,11.09
2022-10-23T03:22:57.913Z,11.05
2022-10-23T03:28:00.425Z,10.81
2022-10-23T03:33:02.193Z,10.70
2022-10-23T03:38:04.011Z,10.70
2022-10-23T03:43:05.971Z,10.79
2022-10-23T03:48:08.360Z,10.85
2022-10-23T03:53:10.119Z,10.73
2022-10-23T03:58:11.948Z,10.85
2022-10-23T04:03:13.661Z,11.01
2022-10-23T04:08:19.171Z,10.93
2022-10-23T04:13:22.110Z,10.83
2022-10-23T04:18:23.837Z,10.63
2022-10-23T04:23:25.659Z,10.65
2022-10-23T04:28:27.713Z,10.54
2022-10-23T04:33:29.514Z,10.62
2022-10-23T04:38:31.294Z,10.73
2022-10-23T04:43:33.035Z,10.82
2022-10-23T04:48:34.936Z,10.80
2022-10-23T04:53:36.747Z,10.54
2022-10-23T04:58:38.536Z,10.69
2022-10-23T05:03:40.406Z,10.78
2022-10-23T05:08:42.196Z,10.78
2022-10-23T05:13:43.976Z,10.81
2022-10-23T05:18:48.349Z,10.66
2022-10-23T05:23:50.889Z,10.58
2022-10-23T05:28:52.768Z,10.68
2022-10-23T05:33:56.557Z,10.59
2022-10-23T05:38:59.203Z,10.50
2022-10-23T05:44:00.961Z,10.48
2022-10-23T05:49:02.844Z,10.59
2022-10-23T05:54:07.907Z,10.60
2022-10-23T05:59:10.384Z,10.52
2022-10-23T06:04:12.182Z,10.61
2022-10-23T06:09:15.409Z,10.41
2022-10-23T06:14:17.254Z,10.40
2022-10-23T06:19:19.185Z,10.52
2022-10-23T06:24:21.006Z,10.52
2022-10-23T06:29:23.057Z,10.43
2022-10-23T06:34:24.985Z,10.38
2022-10-23T06:39:29.768Z,10.62
2022-10-23T06:44:34.078Z,10.84
2022-10-23T06:49:36.004Z,10.81
2022-10-23T06:54:37.782Z,10.68
2022-10-23T06:59:39.602Z,10.74
2022-10-23T07:04:41.459Z,10.67
2022-10-23T07:09:43.282Z,10.74
2022-10-23T07:14:45.090Z,10.87
2022-10-23T07:19:47.859Z,11.02
2022-10-23T07:24:49.861Z,10.98
2022-10-23T07:29:52.453Z,11.03
2022-10-23T07:34:54.282Z,11.30
2022-10-23T07:39:56.334Z,11.41
2022-10-23T07:44:58.220Z,11.40
2022-10-23T07:50:00.011Z,11.42
2022-10-23T07:55:01.976Z,11.51
2022-10-23T08:00:04.581Z,11.32
2022-10-23T08:05:07.809Z,11.57
2022-10-23T08:10:10.095Z,11.65
2022-10-23T08:15:11.987Z,11.59
2022-10-23T08:20:13.925Z,11.62
2022-10-23T08:25:15.853Z,11.65
2022-10-23T08:30:17.813Z,11.49
2022-10-23T08:35:19.802Z,11.57
2022-10-23T08:40:26.153Z,11.64
2022-10-23T08:45:40.182Z,11.74
2022-10-23T08:50:49.093Z,11.93
2022-10-23T08:56:03.043Z,11.69
2022-10-23T09:01:42.383Z,11.81
2022-10-23T09:06:56.392Z,12.07
2022-10-23T09:12:21.500Z,12.03
2022-10-23T09:17:24.828Z,12.09
2022-10-23T09:22:28.452Z,12.29
2022-10-23T09:27:30.393Z,12.45
2022-10-23T09:32:34.395Z,12.69
2022-10-23T09:37:48.695Z,12.86
2022-10-23T09:42:59.394Z,12.95
2022-10-23T09:48:15.038Z,12.73
2022-10-23T09:53:38.723Z,13.19
2022-10-23T09:58:52.441Z,13.29
2022-10-23T10:03:54.563Z,13.11
2022-10-23T10:09:00.105Z,13.17
2022-10-23T10:14:30.041Z,13.20
2022-10-23T10:20:20.758Z,13.18
2022-10-23T10:25:52.387Z,13.52
2022-10-23T10:31:03.194Z,13.72
2022-10-23T10:36:38.859Z,13.98
2022-10-23T10:41:58.883Z,14.28
2022-10-23T10:47:22.036Z,14.16
2022-10-23T10:52:49.263Z,14.29
2022-10-23T10:57:59.301Z,14.36
2022-10-23T11:03:24.716Z,14.28
2022-10-23T11:08:49.850Z,14.25
2022-10-23T11:13:59.760Z,14.22
2022-10-23T11:19:20.626Z,14.35
2022-10-23T11:24:25.306Z,14.31
2022-10-23T11:29:40.944Z,14.68
2022-10-23T11:35:19.748Z,15.07
2022-10-23T11:40:24.655Z,15.23
2022-10-23T11:45:46.663Z,15.30
2022-10-23T11:50:48.424Z,15.53
2022-10-23T11:56:11.543Z,15.70
2022-10-23T12:01:32.627Z,15.75
2022-10-23T12:06:56.975Z,15.69
2022-10-23T12:12:07.826Z,15.81
2022-10-23T12:17:24.742Z,15.98
2022-10-23T12:22:41.473Z,16.35
2022-10-23T12:28:00.416Z,16.68
2022-10-23T12:33:27.935Z,16.74
2022-10-23T12:38:33.980Z,16.74
2022-10-23T12:43:39.130Z,16.63
2022-10-23T12:48:49.246Z,16.57
2022-10-23T12:53:51.548Z,16.68
2022-10-23T12:59:02.941Z,17.00
2022-10-23T13:04:10.817Z,17.25
2022-10-23T13:09:24.686Z,17.32
2022-10-23T13:14:43.654Z,17.22
2022-10-23T13:19:46.448Z,17.28
2022-10-23T13:24:48.565Z,17.56
2022-10-23T13:29:50.397Z,17.80
2022-10-23T13:35:10.044Z,17.98
2022-10-23T13:40:25.867Z,18.03
2022-10-23T13:45:28.112Z,18.07
2022-10-23T13:50:29.899Z,18.19
2022-10-23T13:55:31.822Z,18.28
2022-10-23T14:00:33.746Z,18.26
2022-10-23T14:05:35.567Z,18.32
2022-10-23T14:10:37.345Z,18.41
2022-10-23T14:15:39.355Z,18.47
2022-10-23T14:20:41.133Z,18.46
2022-10-23T14:25:42.867Z,18.25
2022-10-23T14:30:44.815Z,18.16
2022-10-23T14:35:46.625Z,18.14
2022-10-23T14:40:48.466Z,18.05
2022-10-23T14:45:50.395Z,18.03
2022-10-23T14:50:52.526Z,17.89
2022-10-23T14:55:54.292Z,17.88
2022-10-23T15:01:00.230Z,17.82
2022-10-23T15:06:02.369Z,17.72
2022-10-23T15:11:07.711Z,17.66
2022-10-23T15:16:12.285Z,17.47
2022-10-23T15:21:14.863Z,17.39
2022-10-23T15:26:23.562Z,17.42
2022-10-23T15:31:43.472Z,17.18
2022-10-23T15:36:47.260Z,17.14
2022-10-23T15:41:53.054Z,17.08
2022-10-23T15:46:57.191Z,16.97
2022-10-23T15:51:59.678Z,16.75
2022-10-23T15:57:02.282Z,16.73
2022-10-23T16:02:04.176Z,16.65
2022-10-23T16:07:07.273Z,16.62
2022-10-23T16:12:09.253Z,16.51
2022-10-23T16:17:11.607Z,16.36
2022-10-23T16:22:13.506Z,16.29
2022-10-23T16:27:15.345Z,16.20
2022-10-23T16:32:18.444Z,16.11
2022-10-23T16:37:20.187Z,16.16
2022-10-23T16:42:21.981Z,16.16
2022-10-23T16:47:24.228Z,16.22
2022-10-23T16:52:27.086Z,16.19
2022-10-23T16:57:29.075Z,16.11
2022-10-23T17:02:30.976Z,16.17
2022-10-23T17:07:32.897Z,16.14
2022-10-23T17:12:36.270Z,16.08
2022-10-23T17:17:38.017Z,16.00
2022-10-23T17:22:40.371Z,15.99
2022-10-23T17:27:43.225Z,16.02
2022-10-23T17:32:47.501Z,15.99
2022-10-23T17:37:50.651Z,15.98
2022-10-23T17:42:52.658Z,15.94
2022-10-23T17:47:54.739Z,15.86
2022-10-23T17:52:56.558Z,15.89
2022-10-23T17:57:58.729Z,15.76
2022-10-23T18:03:00.674Z,15.51
2022-10-23T18:08:02.595Z,15.39
2022-10-23T18:13:04.444Z,15.43
2022-10-23T18:18:08.018Z,15.41
2022-10-23T18:23:11.674Z,15.42
2022-10-23T18:28:14.237Z,15.11
2022-10-23T18:33:16.868Z,15.08
2022-10-23T18:38:18.680Z,15.10
2022-10-23T18:43:41.878Z,14.87
2022-10-23T18:48:44.322Z,14.73
2022-10-23T18:53:46.922Z,14.76
2022-10-23T18:58:54.038Z,14.79
2022-10-23T19:03:57.768Z,14.74
2022-10-23T19:09:00.029Z,14.67
2022-10-23T19:14:02.781Z,14.49
2022-10-23T19:19:14.767Z,14.55
2022-10-23T19:24:22.279Z,14.67
2022-10-23T19:29:26.858Z,14.77
2022-10-23T19:34:28.897Z,14.84
2022-10-23T19:39:30.818Z,14.84
2022-10-23T19:44:32.618Z,14.85
2022-10-23T19:49:34.436Z,14.81
2022-10-23T19:54:38.099Z,14.75
2022-10-23T19:59:40.410Z,14.72
2022-10-23T20:04:42.879Z,14.65
2022-10-23T20:09:45.795Z,14.56
2022-10-23T20:14:49.566Z,14.54
2022-10-23T20:19:53.577Z,14.51
2022-10-23T20:24:55.521Z,14.47
2022-10-23T20:29:58.488Z,14.49
2022-10-23T20:35:01.152Z,14.38
2022-10-23T20:40:04.718Z,14.33
2022-10-23T20:45:07.854Z,14.26
2022-10-23T20:50:10.058Z,14.27
2022-10-23T20:55:12.195Z,14.32
2022-10-23T21:00:15.661Z,14.34
2022-10-23T21:05:17.895Z,14.33
2022-10-23T21:10:19.818Z,14.28
2022-10-23T21:15:21.766Z,14.24
2022-10-23T21:20:23.559Z,14.20
2022-10-23T21:25:25.425Z,14.16
2022-10-23T21:30:27.381Z,14.10
2022-10-23T21:35:30.151Z,14.04
2022-10-23T21:40:32.162Z,13.87
2022-10-23T21:45:35.329Z,13.71
2022-10-23T21:50:37.293Z,13.60
2022-10-23T21:55:39.360Z,13.53
2022-10-23T22:00:41.190Z,13.48
2022-10-23T22:05:43.040Z,13.45
2022-10-23T22:10:44.931Z,13.46
2022-10-23T22:15:46.754Z,13.47
2022-10-23T22:20:48.551Z,13.38
2022-10-23T22:25:50.411Z,13.38
2022-10-23T22:30:52.274Z,13.41
2022-10-23T22:36:00.921Z,13.34
2022-10-23T22:41:04.346Z,13.15
2022-10-23T22:46:17.682Z,13.03
2022-10-23T22:51:21.620Z,12.86
2022-10-23T22:56:27.130Z,12.91
2022-10-23T23:01:35.918Z,12.78
2022-10-23T23:06:37.981Z,12.82
2022-10-23T23:11:51.438Z,12.83
2022-10-23T23:16:54.117Z,12.87
2022-10-23T23:21:57.651Z,12.76
2022-10-23T23:26:59.380Z,12.78
2022-10-23T23:32:01.240Z,12.84
2022-10-23T23:37:03.089Z,12.80
2022-10-23T23:42:05.210Z,12.73
2022-10-23T23:47:07.200Z,12.74
2022-10-23T23:52:09.101Z,12.72
2022-10-23T23:57:11.860Z,12.60
